Time;durP1;ratioP1;P1;durP2;ratioP2;P2;SDS_P1;SDS_P2;PMS_P1;PMS_P2;Temp;Humidity;BMP_temperature;BMP_pressure;BME280_temperature;BME280_humidity;BME280_pressure;Samples;Min_cycle;Max_cycle;Signal;HPM_P1;HPM_P2
2022/11/10 00:01:53;;;;;;;17.27;2.60;;;;;;;11.60;84.15;101739.44;5002262;28;20123;-64
2022/11/10 00:04:19;;;;;;;14.68;2.92;;;;;;;11.63;83.88;101735.25;5002338;28;20038;-64
2022/11/10 00:06:48;;;;;;;14.02;2.72;;;;;;;11.63;83.93;101740.41;4999855;28;20515;-65
2022/11/10 00:09:14;;;;;;;13.57;2.80;;;;;;;11.61;84.06;101744.63;5008034;28;20669;-64
2022/11/10 00:11:40;;;;;;;13.77;2.55;;;;;;;11.63;83.81;101745.56;5002384;28;20048;-64
2022/11/10 00:17:03;;;;;;;14.80;2.75;;;;;;;11.58;83.98;101738.47;5004545;28;20079;-64
2022/11/10 00:19:34;;;;;;;12.82;2.97;;;;;;;11.66;83.81;101735.41;4986047;28;20125;-64
2022/11/10 00:22:00;;;;;;;12.60;2.63;;;;;;;11.61;83.94;101736.03;4998829;28;20037;-64
2022/11/10 00:24:27;;;;;;;9.85;2.47;;;;;;;11.54;84.00;101735.81;4999758;28;20034;-65
2022/11/10 00:26:53;;;;;;;16.38;2.83;;;;;;;11.52;84.38;101737.44;4998840;28;20105;-64
2022/11/10 00:29:19;;;;;;;13.27;2.53;;;;;;;11.52;84.52;101749.44;5000269;28;20117;-64
2022/11/10 00:31:44;;;;;;;14.73;2.50;;;;;;;11.48;84.41;101748.44;5000710;28;20121;-64
2022/11/10 00:34:12;;;;;;;12.23;2.47;;;;;;;11.52;84.51;101747.72;5001455;28;20113;-64
2022/11/10 00:36:38;;;;;;;11.50;2.55;;;;;;;11.44;84.72;101756.88;4998311;28;20026;-64
2022/11/10 00:39:04;;;;;;;12.18;2.40;;;;;;;11.46;84.66;101762.94;4998625;28;20103;-64
2022/11/10 00:41:29;;;;;;;13.20;2.58;;;;;;;11.47;84.65;101766.44;5000122;28;20033;-64
2022/11/10 00:43:55;;;;;;;12.48;2.50;;;;;;;11.45;84.82;101761.19;5000674;28;20477;-64
2022/11/10 00:46:20;;;;;;;12.30;2.67;;;;;;;11.45;84.56;101774.06;4999597;28;20073;-64
2022/11/10 00:48:46;;;;;;;14.32;2.90;;;;;;;11.41;84.57;101773.91;4999958;28;20387;-65
2022/11/10 00:51:20;;;;;;;15.65;3.00;;;;;;;11.49;84.62;101770.81;5000456;28;20041;-65
2022/11/10 00:53:45;;;;;;;13.07;2.80;;;;;;;11.44;84.67;101774.03;5000947;28;20049;-64
2022/11/10 00:56:11;;;;;;;20.02;2.88;;;;;;;11.41;84.88;101774.78;4985466;28;20029;-64
2022/11/10 00:58:36;;;;;;;12.10;2.58;;;;;;;11.39;84.38;101762.66;5001117;28;20523;-64
2022/11/10 01:01:03;;;;;;;11.82;2.47;;;;;;;11.44;84.55;101776.59;5002686;28;20042;-64
2022/11/10 01:03:29;;;;;;;10.88;2.47;;;;;;;11.43;84.30;101774.84;5003736;28;20112;-64
2022/11/10 01:05:55;;;;;;;14.50;2.40;;;;;;;11.39;84.91;101778.09;5000424;28;20117;-64
2022/11/10 01:08:20;;;;;;;15.30;2.65;;;;;;;11.38;84.67;101778.94;5001066;28;20060;-64
2022/11/10 01:10:45;;;;;;;12.75;2.35;;;;;;;11.42;84.72;101773.09;4999068;28;20542;-64
2022/11/10 01:13:10;;;;;;;12.60;2.42;;;;;;;11.39;84.52;101780.69;4997564;28;20026;-64
2022/11/10 01:15:40;;;;;;;12.00;2.53;;;;;;;11.36;84.92;101778.88;5001396;28;20033;-64
2022/11/10 01:18:06;;;;;;;16.50;2.88;;;;;;;11.35;84.79;101782.28;4997586;28;20041;-64
2022/11/10 01:20:33;;;;;;;13.45;2.78;;;;;;;11.37;84.94;101784.91;4998203;28;20080;-64
2022/11/10 01:22:58;;;;;;;12.50;2.25;;;;;;;11.35;84.58;101800.31;5000014;28;20033;-64
2022/11/10 01:25:24;;;;;;;13.00;2.65;;;;;;;11.31;84.76;101800.97;4999472;28;20445;-64
2022/11/10 01:27:50;;;;;;;13.77;2.33;;;;;;;11.26;85.08;101815.38;4998574;28;20137;-64
2022/11/10 01:30:16;;;;;;;12.00;2.30;;;;;;;11.26;84.92;101805.94;4996372;28;20484;-64
2022/11/10 01:32:41;;;;;;;13.20;2.92;;;;;;;11.28;84.78;101812.06;4994790;28;20073;-64
2022/11/10 01:35:07;;;;;;;10.18;2.28;;;;;;;11.27;84.89;101815.41;4998117;28;20026;-64
2022/11/10 01:37:32;;;;;;;13.10;2.40;;;;;;;11.31;84.84;101820.72;4998671;28;20068;-64
2022/11/10 01:39:58;;;;;;;13.98;2.70;;;;;;;11.26;85.01;101823.97;4999208;28;20061;-64
2022/11/10 01:42:39;;;;;;;15.20;2.40;;;;;;;11.27;85.50;101820.56;5002594;28;20038;-64
2022/11/10 01:45:23;;;;;;;11.23;2.30;;;;;;;11.31;84.90;101813.88;5001469;28;20037;-64
2022/11/10 01:48:00;;;;;;;20.70;3.40;;;;;;;11.28;85.55;101817.19;5001573;28;20049;-64
2022/11/10 01:50:33;;;;;;;13.65;2.83;;;;;;;11.18;85.75;101817.63;4996520;28;20054;-64
2022/11/10 01:53:02;;;;;;;17.23;2.38;;;;;;;11.20;85.49;101817.69;4997481;28;20062;-64
2022/11/10 01:55:28;;;;;;;18.42;2.55;;;;;;;11.15;85.34;101809.78;4998478;28;20071;-64
2022/11/10 01:57:55;;;;;;;13.80;2.30;;;;;;;11.20;85.22;101812.53;4999645;28;20109;-64
2022/11/10 02:00:21;;;;;;;12.27;2.30;;;;;;;11.18;85.50;101817.63;5002386;28;20424;-64
2022/11/10 02:03:12;;;;;;;10.82;2.15;;;;;;;11.24;85.10;101815.31;4998680;28;20079;-64
2022/11/10 02:05:37;;;;;;;8.68;2.15;;;;;;;11.18;85.31;101824.47;4997341;28;20018;-64
2022/11/10 02:08:04;;;;;;;11.02;2.40;;;;;;;11.19;85.00;101811.66;5000863;28;20136;-64
2022/11/10 02:10:30;;;;;;;11.32;2.45;;;;;;;11.16;85.27;101821.84;4999461;28;20475;-64
2022/11/10 02:12:55;;;;;;;14.48;2.55;;;;;;;11.15;85.50;101819.19;4999519;28;20038;-64
2022/11/10 02:15:21;;;;;;;13.55;2.35;;;;;;;11.10;85.58;101824.19;5002958;28;20041;-64
2022/11/10 02:17:46;;;;;;;11.82;2.30;;;;;;;11.13;85.50;101823.41;5000928;28;20026;-64
2022/11/10 02:20:16;;;;;;;11.95;2.42;;;;;;;11.00;85.98;101822.91;5000521;28;20168;-64
2022/11/10 02:22:41;;;;;;;12.48;2.92;;;;;;;11.13;85.43;101833.72;4995922;28;20068;-64
2022/11/10 02:25:07;;;;;;;13.80;2.30;;;;;;;11.12;85.36;101837.09;4996439;28;20037;-64
2022/11/10 02:27:33;;;;;;;14.27;2.38;;;;;;;11.08;85.82;101841.22;5002761;28;20029;-64
2022/11/10 02:29:59;;;;;;;8.88;2.30;;;;;;;11.07;85.84;101846.31;5005029;28;20096;-64
2022/11/10 02:32:24;;;;;;;12.77;2.83;;;;;;;11.08;85.74;101848.06;5003922;28;20065;-64
2022/11/10 02:34:50;;;;;;;13.55;2.63;;;;;;;11.06;85.84;101855.75;5004562;28;20066;-64
2022/11/10 02:37:16;;;;;;;14.80;2.55;;;;;;;11.05;85.71;101864.28;4999787;28;20197;-64
2022/11/10 02:39:41;;;;;;;16.63;3.20;;;;;;;11.10;85.81;101869.59;5000436;28;20032;-64
2022/11/10 02:42:09;;;;;;;14.88;2.42;;;;;;;11.04;85.96;101872.78;4984933;28;20037;-64
2022/11/10 02:44:41;;;;;;;16.02;3.25;;;;;;;11.10;85.95;101882.47;5002353;28;20100;-64
2022/11/10 02:47:07;;;;;;;14.02;2.45;;;;;;;11.02;85.72;101864.16;5000258;28;20109;-64
2022/11/10 02:49:33;;;;;;;12.18;2.78;;;;;;;11.00;86.15;101876.06;5003329;28;20029;-64
2022/11/10 02:51:58;;;;;;;15.25;2.72;;;;;;;11.02;86.08;101882.16;4999841;28;20037;-64
2022/11/10 02:54:23;;;;;;;12.73;2.28;;;;;;;11.00;85.98;101876.06;4984418;28;20635;-64
2022/11/10 02:56:49;;;;;;;15.13;2.38;;;;;;;11.05;85.64;101865.97;5004608;28;20062;-64
2022/11/10 02:59:14;;;;;;;16.02;2.95;;;;;;;10.97;85.87;101868.22;4984794;28;20026;-64
2022/11/10 03:01:39;;;;;;;15.25;2.75;;;;;;;11.01;85.96;101877.84;5003975;28;20034;-64
2022/11/10 03:04:05;;;;;;;17.55;2.70;;;;;;;10.94;86.01;101886.09;5000925;28;20054;-64
2022/11/10 03:06:31;;;;;;;14.15;2.50;;;;;;;10.97;85.84;101881.94;5000277;28;20473;-64
2022/11/10 03:08:57;;;;;;;9.38;2.03;;;;;;;10.99;85.90;101884.63;5001240;28;20584;-64
2022/11/10 03:11:22;;;;;;;11.15;2.40;;;;;;;10.94;85.85;101884.41;5001967;28;20472;-64
2022/11/10 03:13:48;;;;;;;11.48;2.17;;;;;;;10.97;85.93;101888.81;5001832;28;20030;-64
2022/11/10 03:16:13;;;;;;;16.65;2.85;;;;;;;10.98;85.86;101895.69;5002364;28;20104;-64
2022/11/10 03:18:39;;;;;;;12.02;2.28;;;;;;;10.99;85.69;101895.78;5001061;28;20473;-64
2022/11/10 03:21:04;;;;;;;16.88;2.67;;;;;;;10.96;85.81;101895.63;5001184;28;20076;-64
2022/11/10 03:23:32;;;;;;;13.18;2.10;;;;;;;10.96;86.12;101899.91;5003254;28;20133;-64
2022/11/10 03:25:57;;;;;;;15.63;2.80;;;;;;;10.94;86.16;101906.69;5003385;28;20025;-64
2022/11/10 03:28:22;;;;;;;15.55;2.95;;;;;;;10.89;86.36;101914.22;5003753;28;20033;-64
2022/11/10 03:30:48;;;;;;;11.27;2.53;;;;;;;10.91;86.30;101911.69;5000112;28;20038;-64
2022/11/10 03:33:13;;;;;;;12.45;2.20;;;;;;;10.88;86.50;101911.59;5002784;28;20036;-64
2022/11/10 03:35:39;;;;;;;12.23;2.30;;;;;;;10.88;86.13;101916.72;5002972;28;20713;-64
2022/11/10 03:38:04;;;;;;;13.50;2.03;;;;;;;10.85;86.49;101929.44;5003999;28;20049;-64
2022/11/10 03:40:30;;;;;;;16.60;2.63;;;;;;;10.82;86.73;101937.03;4984407;28;20046;-64
2022/11/10 03:42:55;;;;;;;15.40;2.83;;;;;;;10.83;86.36;101931.97;5003039;28;20038;-64
2022/11/10 03:45:20;;;;;;;13.15;2.60;;;;;;;10.86;86.31;101944.97;4998464;28;20030;-64
2022/11/10 03:47:47;;;;;;;11.27;2.30;;;;;;;10.77;86.81;101939.41;5000027;28;20030;-64
2022/11/10 03:50:14;;;;;;;12.63;2.35;;;;;;;10.86;86.59;101949.22;4999673;28;20036;-64
2022/11/10 03:52:42;;;;;;;11.15;2.33;;;;;;;10.84;86.35;101945.69;4998337;28;20570;-64
2022/11/10 03:55:13;;;;;;;12.63;2.63;;;;;;;10.85;86.21;101952.59;4981012;28;20040;-64
2022/11/10 03:57:39;;;;;;;15.63;2.80;;;;;;;10.80;86.30;101948.94;5003419;28;20100;-64
2022/11/10 04:00:05;;;;;;;12.68;2.03;;;;;;;10.79;86.30;101955.78;4999125;28;20027;-64
2022/11/10 04:02:30;;;;;;;16.83;2.33;;;;;;;10.77;86.33;101954.84;5000969;28;20362;-64
2022/11/10 04:10:24;;;;;;;11.25;2.08;;;;;;;10.76;86.49;101957.34;5001412;28;20057;-64
2022/11/10 04:15:42;;;;;;;17.48;2.35;;;;;;;10.72;86.59;101966.63;5001345;28;20045;-64
2022/11/10 04:18:25;;;;;;;10.02;2.25;;;;;;;10.69;86.97;101976.78;5001241;28;20033;-64
2022/11/10 04:20:58;;;;;;;11.10;2.38;;;;;;;10.73;87.07;101971.81;5001682;28;20396;-64
2022/11/10 04:23:27;;;;;;;11.07;2.28;;;;;;;10.71;86.79;101976.03;4999883;28;20905;-64
2022/11/10 04:28:37;;;;;;;13.40;2.35;;;;;;;10.73;87.07;101992.41;5003351;28;20044;-65
2022/11/10 04:31:02;;;;;;;13.13;2.50;;;;;;;10.71;87.19;101991.47;4998114;28;20397;-64
2022/11/10 04:33:28;;;;;;;15.35;2.45;;;;;;;10.71;87.04;101998.31;4995240;28;20034;-64
2022/11/10 04:35:53;;;;;;;11.90;2.28;;;;;;;10.71;87.24;102006.91;5000536;28;20054;-64
2022/11/10 04:38:18;;;;;;;14.88;2.75;;;;;;;10.65;87.03;102016.03;5000098;28;20121;-64
2022/11/10 04:40:44;;;;;;;13.07;2.25;;;;;;;10.63;87.05;102013.38;5000570;28;20038;-64
2022/11/10 04:43:10;;;;;;;19.85;2.75;;;;;;;10.65;87.11;102022.06;5000099;28;20182;-64
2022/11/10 04:45:35;;;;;;;18.65;2.80;;;;;;;10.63;87.29;102027.94;4983162;28;20452;-64
2022/11/10 04:48:00;;;;;;;21.23;2.75;;;;;;;10.64;87.41;102029.69;5000862;28;20089;-64
2022/11/10 04:50:26;;;;;;;14.80;2.72;;;;;;;10.62;87.23;102032.22;4998655;28;20438;-64
2022/11/10 04:52:51;;;;;;;15.07;2.55;;;;;;;10.61;87.32;102032.13;4996644;28;20030;-64
2022/11/10 04:55:16;;;;;;;17.00;2.70;;;;;;;10.60;87.47;102036.38;4998334;28;20117;-64
2022/11/10 04:57:42;;;;;;;13.18;2.60;;;;;;;10.62;87.18;102034.78;4999102;28;20042;-64
2022/11/10 05:00:09;;;;;;;17.92;2.60;;;;;;;10.61;87.10;102050.13;4998678;28;20049;-64
2022/11/10 05:02:35;;;;;;;13.15;2.38;;;;;;;10.62;87.24;102049.34;4998726;28;20057;-64
2022/11/10 05:05:01;;;;;;;15.48;2.95;;;;;;;10.59;87.18;102042.34;4999526;28;20058;-64
2022/11/10 05:07:26;;;;;;;10.48;2.47;;;;;;;10.62;87.06;102045.06;4998709;28;20033;-64
2022/11/10 05:09:51;;;;;;;11.43;2.22;;;;;;;10.61;87.30;102048.44;4998166;28;20034;-64
2022/11/10 05:12:17;;;;;;;13.20;2.53;;;;;;;10.60;87.40;102049.25;5000031;28;20021;-64
2022/11/10 05:14:42;;;;;;;15.68;2.42;;;;;;;10.64;87.47;102056.31;4999253;28;20030;-64
2022/11/10 05:17:07;;;;;;;18.95;2.47;;;;;;;10.62;87.26;102052.78;4984260;28;20034;-64
2022/11/10 05:19:33;;;;;;;15.82;2.33;;;;;;;10.60;87.46;102056.06;5002570;28;20030;-64
2022/11/10 05:21:58;;;;;;;12.73;2.53;;;;;;;10.63;87.32;102054.53;4983426;28;20033;-64
2022/11/10 05:24:23;;;;;;;12.20;2.63;;;;;;;10.58;87.40;102048.31;5000303;28;20375;-64
2022/11/10 05:26:49;;;;;;;13.68;2.40;;;;;;;10.57;87.42;102046.53;4980437;28;20054;-64
2022/11/10 05:29:14;;;;;;;16.60;2.90;;;;;;;10.57;87.04;102045.66;4999718;28;20495;-64
2022/11/10 05:31:39;;;;;;;14.90;2.70;;;;;;;10.56;87.37;102057.66;4999684;28;20416;-64
2022/11/10 05:34:04;;;;;;;15.55;2.55;;;;;;;10.54;87.82;102055.78;4983763;28;20042;-64
2022/11/10 05:36:30;;;;;;;13.60;2.15;;;;;;;10.54;87.63;102051.53;4978736;28;20053;-64
2022/11/10 05:38:55;;;;;;;17.58;2.60;;;;;;;10.53;87.52;102054.03;4999007;28;20080;-64
2022/11/10 05:41:21;;;;;;;14.02;2.97;;;;;;;10.42;87.59;102045.81;5001850;28;20587;-64
2022/11/10 05:43:47;;;;;;;16.35;2.97;;;;;;;10.47;87.81;102062.34;4999690;28;20459;-65
2022/11/10 05:46:13;;;;;;;19.15;2.67;;;;;;;10.48;87.73;102067.53;5000954;28;20022;-64
2022/11/10 05:48:38;;;;;;;13.75;2.40;;;;;;;10.42;87.63;102069.81;4997691;28;20109;-64
2022/11/10 05:51:04;;;;;;;15.43;2.70;;;;;;;10.41;87.88;102078.34;4999472;28;20124;-64
2022/11/10 05:53:29;;;;;;;16.55;2.65;;;;;;;10.39;88.24;102073.97;4999766;28;20053;-64
2022/11/10 05:55:55;;;;;;;15.68;3.05;;;;;;;10.44;87.87;102070.81;5001263;28;20602;-64
2022/11/10 05:58:20;;;;;;;18.80;2.55;;;;;;;10.41;87.81;102074.91;4999354;28;20392;-64
2022/11/10 06:00:46;;;;;;;19.88;3.13;;;;;;;10.42;87.90;102080.09;5000480;28;20057;-64
2022/11/10 06:03:14;;;;;;;13.48;2.40;;;;;;;10.40;88.04;102076.59;5001319;28;20053;-64
2022/11/10 06:05:39;;;;;;;17.77;2.50;;;;;;;10.38;88.48;102085.06;5006007;28;20117;-64
2022/11/10 06:08:05;;;;;;;13.38;2.17;;;;;;;10.36;88.50;102097.81;5005998;28;20112;-64
2022/11/10 06:10:31;;;;;;;12.35;2.60;;;;;;;10.35;88.59;102103.78;5005345;28;20014;-64
2022/11/10 06:12:57;;;;;;;17.00;2.60;;;;;;;10.35;88.28;102101.19;5006029;28;20072;-64
2022/11/10 06:15:24;;;;;;;13.00;2.70;;;;;;;10.36;88.24;102094.38;5008589;28;20030;-66
2022/11/10 06:17:49;;;;;;;12.73;2.45;;;;;;;10.37;88.12;102101.25;5001781;28;20037;-65
2022/11/10 06:20:18;;;;;;;11.57;2.47;;;;;;;10.38;88.61;102103.06;5005327;28;20028;-65
2022/11/10 06:22:57;;;;;;;16.15;2.97;;;;;;;10.39;88.46;102107.38;5003398;28;20058;-66
2022/11/10 06:25:23;;;;;;;14.80;2.45;;;;;;;10.37;88.28;102101.25;4997352;28;20030;-66
2022/11/10 06:27:48;;;;;;;19.35;3.15;;;;;;;10.35;88.20;102108.91;5002426;28;21872;-66
2022/11/10 06:30:14;;;;;;;12.70;2.70;;;;;;;10.34;88.25;102114.00;5000231;28;20034;-65
2022/11/10 06:32:44;;;;;;;13.63;2.47;;;;;;;10.38;88.48;102129.66;5001920;28;20045;-65
2022/11/10 06:35:10;;;;;;;15.02;2.50;;;;;;;10.34;88.25;102129.41;5003076;28;20036;-66
2022/11/10 06:37:37;;;;;;;16.33;2.60;;;;;;;10.32;88.21;102126.78;5001899;28;20381;-65
2022/11/10 06:40:05;;;;;;;10.63;2.60;;;;;;;10.36;88.18;102130.34;5002275;28;20032;-67
2022/11/10 06:42:30;;;;;;;14.70;2.47;;;;;;;10.34;88.40;102147.41;5003176;28;20077;-66
2022/11/10 06:44:56;;;;;;;16.23;2.70;;;;;;;10.34;88.37;102149.97;5003270;28;20507;-67
2022/11/10 06:47:21;;;;;;;11.75;2.45;;;;;;;10.33;88.48;102155.94;4999035;28;20053;-67
2022/11/10 06:49:46;;;;;;;11.38;2.58;;;;;;;10.34;88.24;102162.84;4999604;28;20527;-66
2022/11/10 06:52:12;;;;;;;14.63;2.85;;;;;;;10.32;88.15;102167.91;5001345;28;20034;-67
2022/11/10 06:54:37;;;;;;;14.07;2.97;;;;;;;10.32;88.31;102179.88;5000509;28;20049;-67
2022/11/10 06:57:03;;;;;;;15.95;3.00;;;;;;;10.30;88.61;102174.66;4993258;28;20061;-66
2022/11/10 06:59:28;;;;;;;14.50;2.70;;;;;;;10.30;88.62;102171.19;4976599;28;20029;-66
2022/11/10 07:01:53;;;;;;;15.30;2.58;;;;;;;10.29;88.57;102178.03;5003217;28;20045;-67
2022/11/10 07:04:19;;;;;;;13.02;2.65;;;;;;;10.31;88.56;102171.25;4983444;28;20473;-67
2022/11/10 07:06:46;;;;;;;16.02;3.00;;;;;;;10.31;88.74;102183.22;4999656;28;20030;-67
2022/11/10 07:09:12;;;;;;;15.13;2.70;;;;;;;10.30;88.49;102186.63;5002038;28;20126;-66
2022/11/10 07:11:37;;;;;;;17.00;2.85;;;;;;;10.28;88.66;102189.13;4999806;28;20415;-65
2022/11/10 07:14:02;;;;;;;21.15;2.95;;;;;;;10.28;89.08;102185.66;5002575;28;20038;-66
2022/11/10 07:16:28;;;;;;;13.35;2.50;;;;;;;10.32;88.75;102185.03;5001599;28;20022;-67
2022/11/10 07:18:53;;;;;;;19.80;3.17;;;;;;;10.33;88.68;102203.09;4982357;28;20157;-66
2022/11/10 07:21:19;;;;;;;13.05;3.00;;;;;;;10.35;88.83;102210.88;5000750;28;20071;-66
2022/11/10 07:23:45;;;;;;;15.55;3.05;;;;;;;10.32;88.95;102214.19;5001908;28;20045;-66
2022/11/10 07:26:11;;;;;;;11.85;2.88;;;;;;;10.31;89.03;102219.22;5003912;28;20099;-66
2022/11/10 07:28:36;;;;;;;11.73;2.00;;;;;;;10.33;89.21;102218.53;5001665;28;20038;-66
2022/11/10 07:31:02;;;;;;;16.55;2.85;;;;;;;10.33;89.29;102233.06;5000610;28;20145;-66
2022/11/10 07:33:27;;;;;;;15.35;3.00;;;;;;;10.36;89.08;102238.34;5000016;28;20065;-66
2022/11/10 07:35:55;;;;;;;15.95;2.88;;;;;;;10.35;89.18;102232.31;5000103;28;20412;-66
2022/11/10 07:38:21;;;;;;;16.55;2.92;;;;;;;10.32;89.42;102231.31;4999980;28;20042;-66
2022/11/10 07:40:51;;;;;;;16.35;3.03;;;;;;;10.37;89.66;102232.41;4998482;28;20045;-67
2022/11/10 07:43:16;;;;;;;19.60;2.85;;;;;;;10.31;89.31;102220.13;5002896;28;20042;-66
2022/11/10 07:45:41;;;;;;;13.35;3.00;;;;;;;10.40;89.15;102232.56;5000560;28;20417;-67
2022/11/10 07:48:08;;;;;;;15.88;3.22;;;;;;;10.36;89.59;102235.78;5000882;28;20039;-69
2022/11/10 07:50:33;;;;;;;16.60;2.80;;;;;;;10.40;89.15;102230.88;4985736;28;20026;-69
2022/11/10 07:53:06;;;;;;;11.15;2.70;;;;;;;10.46;89.60;102233.75;4984350;28;20108;-68
2022/11/10 07:55:32;;;;;;;13.38;2.75;;;;;;;10.37;89.63;102235.84;5004184;28;20037;-69
2022/11/10 07:57:58;;;;;;;16.60;2.78;;;;;;;10.44;89.96;102230.22;4984283;28;20034;-66
2022/11/10 08:00:24;;;;;;;18.25;3.08;;;;;;;10.44;89.86;102247.34;5002522;28;20030;-67
2022/11/10 08:02:50;;;;;;;19.05;2.60;;;;;;;10.44;89.82;102248.25;5001416;28;20538;-67
2022/11/10 08:05:15;;;;;;;20.13;3.10;;;;;;;10.44;90.05;102247.34;5001775;28;20046;-67
2022/11/10 08:07:40;;;;;;;15.18;3.20;;;;;;;10.47;89.99;102257.78;5006450;28;20026;-67
2022/11/10 08:10:06;;;;;;;15.27;2.83;;;;;;;10.50;89.94;102264.78;5003023;28;20038;-67
2022/11/10 08:12:31;;;;;;;11.02;2.83;;;;;;;10.54;89.99;102270.13;4982416;28;20034;-67
2022/11/10 08:14:57;;;;;;;18.45;3.10;;;;;;;10.54;90.02;102280.44;4997912;28;20034;-67
2022/11/10 08:17:22;;;;;;;17.45;2.90;;;;;;;10.57;90.12;102283.16;4999398;28;20018;-67
2022/11/10 08:19:47;;;;;;;20.20;3.42;;;;;;;10.60;90.26;102280.75;4999551;28;20124;-67
2022/11/10 08:22:13;;;;;;;14.90;3.03;;;;;;;10.63;90.19;102275.75;4979599;28;20129;-67
2022/11/10 08:24:38;;;;;;;17.70;3.50;;;;;;;10.64;90.21;102282.66;4996514;28;20400;-67
2022/11/10 08:27:04;;;;;;;14.35;2.97;;;;;;;10.65;90.29;102287.00;4992954;28;20109;-67
2022/11/10 08:29:29;;;;;;;17.15;3.10;;;;;;;10.68;90.11;102289.75;4994947;28;20037;-67
2022/11/10 08:31:54;;;;;;;15.25;3.08;;;;;;;10.69;90.17;102294.06;4999851;28;20022;-67
2022/11/10 08:34:21;;;;;;;10.40;2.80;;;;;;;10.72;90.29;102285.63;5001932;28;20091;-67
2022/11/10 08:36:46;;;;;;;19.05;3.28;;;;;;;10.73;90.12;102284.81;5006201;28;20037;-67
2022/11/10 08:39:11;;;;;;;20.40;3.20;;;;;;;10.77;90.50;102284.16;4994825;28;20037;-67
2022/11/10 08:41:37;;;;;;;18.02;3.00;;;;;;;10.81;90.24;102291.22;4993203;28;20026;-67
2022/11/10 08:44:02;;;;;;;15.70;3.45;;;;;;;10.88;90.53;102288.16;4998800;28;20477;-67
2022/11/10 08:46:28;;;;;;;15.70;2.95;;;;;;;11.00;90.44;102293.91;4997504;28;20184;-67
2022/11/10 08:48:53;;;;;;;16.92;3.38;;;;;;;11.16;89.99;102305.84;4989589;28;20540;-67
2022/11/10 08:51:20;;;;;;;16.92;2.88;;;;;;;11.33;89.12;102306.63;5005702;28;20117;-67
2022/11/10 08:53:45;;;;;;;14.25;3.00;;;;;;;11.47;88.61;102308.19;5000551;28;20412;-67
2022/11/10 08:56:11;;;;;;;15.90;3.15;;;;;;;11.59;88.68;102312.13;4991232;28;20033;-67
2022/11/10 08:58:37;;;;;;;14.48;3.20;;;;;;;11.73;87.74;102311.09;5000343;28;20041;-67
2022/11/10 09:01:07;;;;;;;15.90;3.03;;;;;;;11.81;87.46;102307.19;4991233;28;20027;-67
2022/11/10 09:03:32;;;;;;;12.80;2.95;;;;;;;11.86;87.00;102318.63;4997721;28;20033;-67
2022/11/10 09:05:58;;;;;;;15.63;3.28;;;;;;;11.93;86.72;102322.34;4994899;28;20072;-67
2022/11/10 09:08:23;;;;;;;17.50;3.20;;;;;;;12.02;86.34;102321.09;4999189;28;20044;-67
2022/11/10 09:10:50;;;;;;;12.85;3.38;;;;;;;12.11;86.14;102327.47;5001987;28;20101;-67
2022/11/10 09:13:16;;;;;;;16.80;3.20;;;;;;;12.21;85.94;102321.91;5005576;28;20088;-67
2022/11/10 09:15:42;;;;;;;14.68;3.03;;;;;;;12.34;85.04;102339.69;4993928;28;20504;-67
2022/11/10 09:18:09;;;;;;;13.73;2.90;;;;;;;12.40;85.06;102342.53;5005254;28;20066;-67
2022/11/10 09:20:36;;;;;;;17.58;3.15;;;;;;;12.45;84.81;102341.03;4999843;28;20484;-67
2022/11/10 09:23:06;;;;;;;14.40;3.38;;;;;;;12.46;84.78;102334.19;4999907;28;20037;-67
2022/11/10 09:25:32;;;;;;;16.05;3.15;;;;;;;12.47;84.72;102334.25;5000803;28;20029;-67
2022/11/10 09:27:57;;;;;;;16.85;3.58;;;;;;;12.50;84.34;102338.69;4998674;28;20046;-67
2022/11/10 09:30:24;;;;;;;14.20;2.85;;;;;;;12.49;84.43;102336.88;4998849;28;20026;-67
2022/11/10 09:32:54;;;;;;;14.30;3.17;;;;;;;12.51;84.37;102331.00;4996494;28;20037;-67
2022/11/10 09:35:19;;;;;;;13.02;3.08;;;;;;;12.54;84.30;102340.56;5005048;28;20033;-67
2022/11/10 09:37:45;;;;;;;16.98;3.15;;;;;;;12.56;84.37;102336.38;5000855;28;20461;-65
2022/11/10 09:40:30;;;;;;;12.80;2.92;;;;;;;12.63;84.63;102337.50;4989577;28;20034;-67
2022/11/10 09:43:00;;;;;;;20.80;3.17;;;;;;;12.57;84.62;102343.28;5004023;28;20473;-67
2022/11/10 09:45:27;;;;;;;12.88;2.95;;;;;;;12.64;84.75;102347.88;4997617;28;20121;-67
2022/11/10 09:47:59;;;;;;;16.50;3.03;;;;;;;12.63;84.61;102351.28;4995047;28;20026;-70
2022/11/10 09:50:56;;;;;;;14.32;3.00;;;;;;;12.70;84.72;102353.31;5003926;28;20535;-68
2022/11/10 09:53:28;;;;;;;14.77;2.97;;;;;;;12.71;84.33;102347.31;5004313;28;20041;-68
2022/11/10 09:56:03;;;;;;;13.88;3.10;;;;;;;12.74;84.42;102341.41;5004699;28;20026;-68
2022/11/10 09:58:38;;;;;;;15.70;2.90;;;;;;;12.81;84.44;102334.00;4989488;28;20113;-68
2022/11/10 10:01:28;;;;;;;13.68;2.65;;;;;;;12.86;84.36;102344.50;5000510;28;20022;-66
2022/11/10 10:04:45;;;;;;;18.02;3.55;;;;;;;12.89;83.81;102347.22;4998740;28;20064;-66
2022/11/10 10:07:24;;;;;;;14.80;2.63;;;;;;;12.95;84.17;102342.31;4966226;28;20104;-67
2022/11/10 10:10:43;;;;;;;19.65;3.53;;;;;;;13.04;83.95;102353.06;5006446;28;20034;-68
2022/11/10 10:13:30;;;;;;;17.00;3.60;;;;;;;13.12;83.80;102366.28;4966851;28;20048;-68
2022/11/10 10:16:18;;;;;;;17.25;3.10;;;;;;;13.17;83.35;102369.94;4997462;28;20037;-68
2022/11/10 10:19:19;;;;;;;16.02;2.90;;;;;;;13.18;83.25;102368.22;5002130;28;20026;-68
2022/11/10 10:22:06;;;;;;;12.68;2.92;;;;;;;13.26;83.10;102378.09;4999412;28;20086;-66
2022/11/10 10:24:33;;;;;;;13.98;2.80;;;;;;;13.36;83.20;102379.34;4999551;28;20481;-66
2022/11/10 10:27:02;;;;;;;23.65;3.78;;;;;;;13.40;82.75;102382.09;4998158;28;20092;-67
2022/11/10 10:29:42;;;;;;;15.35;3.20;;;;;;;13.47;83.51;102383.25;4996055;28;20065;-67
2022/11/10 10:32:13;;;;;;;13.10;3.17;;;;;;;13.50;83.00;102398.88;5004837;28;20037;-67
2022/11/10 10:34:39;;;;;;;11.90;2.80;;;;;;;13.55;82.66;102401.66;5003875;28;20026;-67
2022/11/10 10:37:20;;;;;;;14.90;3.13;;;;;;;13.57;82.23;102407.75;4993570;28;20045;-67
2022/11/10 10:39:48;;;;;;;16.23;2.80;;;;;;;13.61;81.44;102400.19;4988968;28;20104;-67
2022/11/10 10:42:34;;;;;;;18.45;3.45;;;;;;;13.67;81.11;102422.81;4989035;28;20031;-67
2022/11/10 10:45:25;;;;;;;10.23;2.75;;;;;;;13.72;81.10;102428.19;4997242;28;20026;-67
2022/11/10 10:47:53;;;;;;;15.57;3.08;;;;;;;13.75;80.34;102429.16;5003294;28;20026;-66
2022/11/10 10:50:33;;;;;;;14.23;2.92;;;;;;;13.84;80.87;102431.25;4997585;28;20113;-65
2022/11/10 10:53:22;;;;;;;14.60;3.13;;;;;;;13.84;80.58;102424.38;4999115;28;20105;-66
2022/11/10 10:56:00;;;;;;;11.45;2.60;;;;;;;13.90;79.65;102424.63;5001087;28;20082;-66
2022/11/10 10:58:26;;;;;;;18.42;2.92;;;;;;;13.94;80.16;102428.19;4996743;28;21205;-66
2022/11/10 11:01:03;;;;;;;14.80;3.08;;;;;;;14.01;79.79;102421.53;4998912;28;20571;-66
2022/11/10 11:03:44;;;;;;;15.32;2.90;;;;;;;14.06;78.84;102428.66;5003707;28;20022;-66
2022/11/10 11:06:18;;;;;;;14.82;3.00;;;;;;;14.11;78.58;102421.09;4998369;28;20439;-66
2022/11/10 11:08:57;;;;;;;14.05;2.65;;;;;;;14.08;78.88;102419.28;5002795;28;20034;-66
2022/11/10 11:11:41;;;;;;;;;;;;;;;14.16;79.07;102411.81;5006710;28;20377;-66
2022/11/10 11:14:28;;;;;;;14.93;2.42;;;;;;;14.16;79.22;102411.81;4982052;28;19917;-66
2022/11/10 11:16:56;;;;;;;13.10;2.50;;;;;;;14.17;79.06;102414.44;5003007;28;20038;-64
2022/11/10 11:19:25;;;;;;;13.32;2.83;;;;;;;14.23;78.74;102413.78;4982019;28;20033;-65
2022/11/10 11:22:15;;;;;;;12.65;2.38;;;;;;;14.29;79.32;102405.38;5003490;28;20030;-65
2022/11/10 11:24:59;;;;;;;15.45;2.72;;;;;;;14.38;78.97;102403.16;5000975;28;20029;-65
2022/11/10 11:27:45;;;;;;;10.80;2.20;;;;;;;14.44;77.38;102403.38;5002801;28;20025;-65
2022/11/10 11:30:21;;;;;;;14.63;2.97;;;;;;;14.48;77.49;102405.25;5002825;28;20038;-65
2022/11/10 11:33:04;;;;;;;15.45;2.70;;;;;;;14.53;77.56;102421.84;5002664;28;20058;-65
2022/11/10 11:35:45;;;;;;;11.07;2.13;;;;;;;14.60;76.64;102430.72;5001582;28;20416;-65
2022/11/10 11:38:32;;;;;;;11.57;2.28;;;;;;;14.59;75.70;102419.47;5005262;28;20088;-65